Time;durP1;ratioP1;P1;durP2;ratioP2;P2;SDS_P1;SDS_P2;PMS_P1;PMS_P2;Temp;Humidity;BMP_temperature;BMP_pressure;BME280_temperature;BME280_humidity;BME280_pressure;Samples;Min_cycle;Max_cycle;Signal;HPM_P1;HPM_P2
2020/12/11 05:45:47;;;;;;;17.40;10.40;;;;;;;;;;6116771;22;884222;-79
2020/12/11 05:48:13;;;;;;;17.48;10.43;;;;;;;;;;6182683;23;20013;-79
2020/12/11 05:50:39;;;;;;;15.35;9.80;;;;;;;;;;6183066;23;20088;-79
2020/12/11 05:53:04;;;;;;;17.58;10.13;;;;;;;;;;6190651;23;20210;-80
2020/12/11 05:55:30;;;;;;;16.50;10.30;;;;;;;;;;6189841;23;20008;-80
2020/12/11 05:57:58;;;;;;;18.00;10.18;;;;;;;;;;6187980;23;20001;-79
2020/12/11 06:00:24;;;;;;;14.48;9.43;;;;;;;;;;6184480;23;20110;-79
2020/12/11 06:02:51;;;;;;;17.80;10.73;;;;;;;;;;6156731;23;20012;-79
2020/12/11 06:05:17;;;;;;;19.20;10.65;;;;;;;;;;6187588;23;20001;-80
2020/12/11 06:07:44;;;;;;;18.20;10.07;;;;;;;;;;6189279;23;20060;-78
2020/12/11 06:10:12;;;;;;;18.20;11.20;;;;;;;;;;6189903;23;19997;-79
2020/12/11 06:12:38;;;;;;;16.92;10.60;;;;;;;;;;6189618;23;20001;-80
2020/12/11 06:15:07;;;;;;;15.52;9.63;;;;;;;;;;6189097;23;20009;-80
2020/12/11 06:17:36;;;;;;;16.67;9.63;;;;;;;;;;6187812;23;20012;-80
2020/12/11 06:20:03;;;;;;;17.80;9.80;;;;;;;;;;6162794;23;20008;-80
2020/12/11 06:22:29;;;;;;;17.13;10.45;;;;;;;;;;6162304;23;20367;-80
2020/12/11 06:24:55;;;;;;;15.95;9.20;;;;;;;;;;6189231;23;20698;-80
2020/12/11 06:27:31;;;;;;;17.08;9.85;;;;;;;;;;6188607;23;20001;-80
2020/12/11 06:29:58;;;;;;;17.13;9.35;;;;;;;;;;6188792;23;20451;-80
2020/12/11 06:32:34;;;;;;;15.40;10.27;;;;;;;;;;6159918;23;20398;-79
2020/12/11 06:35:29;;;;;;;17.05;8.82;;;;;;;;;;6184826;23;20000;-79
2020/12/11 06:37:55;;;;;;;14.55;8.98;;;;;;;;;;6158476;23;20013;-80
2020/12/11 06:40:40;;;;;;;14.18;8.23;;;;;;;;;;6184939;23;20012;-79
2020/12/11 06:43:06;;;;;;;13.90;9.40;;;;;;;;;;6185567;23;20005;-79
2020/12/11 06:45:32;;;;;;;14.75;8.68;;;;;;;;;;6185901;23;20001;-79
2020/12/11 06:47:59;;;;;;;14.27;8.70;;;;;;;;;;6186813;23;20005;-79
2020/12/11 06:50:25;;;;;;;11.20;6.85;;;;;;;;;;6186842;23;20005;-79
2020/12/11 06:52:51;;;;;;;13.45;8.57;;;;;;;;;;6187721;23;20386;-79
2020/12/11 06:55:17;;;;;;;14.02;8.68;;;;;;;;;;6161081;23;20096;-79
2020/12/11 06:57:44;;;;;;;14.23;7.60;;;;;;;;;;6161418;23;20009;-79
2020/12/11 07:00:39;;;;;;;13.02;7.82;;;;;;;;;;6188007;23;20005;-79
2020/12/11 07:03:12;;;;;;;11.88;6.85;;;;;;;;;;6139924;23;20033;-78
2020/12/11 07:05:38;;;;;;;11.63;7.03;;;;;;;;;;6183724;23;19997;-78
2020/12/11 07:08:10;;;;;;;17.30;9.30;;;;;;;;;;6186491;23;19997;-79
2020/12/11 07:10:36;;;;;;;16.60;9.80;;;;;;;;;;6188544;23;19997;-80
2020/12/11 07:13:05;;;;;;;15.85;8.27;;;;;;;;;;6188034;23;20005;-80
2020/12/11 07:15:31;;;;;;;13.98;7.55;;;;;;;;;;6188080;23;20039;-79
2020/12/11 07:17:57;;;;;;;14.65;9.05;;;;;;;;;;6187385;23;20009;-81
2020/12/11 07:20:23;;;;;;;15.00;7.82;;;;;;;;;;6187331;23;20340;-79
2020/12/11 07:22:50;;;;;;;14.02;8.35;;;;;;;;;;6188079;23;20005;-79
2020/12/11 07:25:16;;;;;;;15.07;9.20;;;;;;;;;;6187710;23;20024;-81
2020/12/11 07:27:56;;;;;;;15.45;9.68;;;;;;;;;;6187347;23;20008;-80
2020/12/11 07:30:22;;;;;;;14.88;9.82;;;;;;;;;;6158919;23;20012;-80
2020/12/11 07:32:52;;;;;;;15.52;10.40;;;;;;;;;;6166928;23;20005;-78
2020/12/11 07:35:18;;;;;;;15.55;9.68;;;;;;;;;;6189370;23;20024;-79
2020/12/11 07:37:54;;;;;;;16.08;10.07;;;;;;;;;;6189158;23;20001;-80
2020/12/11 07:40:21;;;;;;;13.75;9.02;;;;;;;;;;6194191;23;20012;-80
2020/12/11 07:42:52;;;;;;;14.40;8.93;;;;;;;;;;6189111;23;20422;-81
2020/12/11 07:45:25;;;;;;;12.98;8.70;;;;;;;;;;6187169;23;20024;-81
2020/12/11 07:47:52;;;;;;;14.77;8.82;;;;;;;;;;6188083;23;20001;-81
2020/12/11 07:50:20;;;;;;;15.70;8.82;;;;;;;;;;6189273;23;20112;-80
2020/12/11 07:52:46;;;;;;;17.02;9.48;;;;;;;;;;6190068;23;20086;-81
2020/12/11 07:55:12;;;;;;;15.48;9.02;;;;;;;;;;6162538;23;20005;-81
2020/12/11 07:57:38;;;;;;;14.32;8.98;;;;;;;;;;6189458;23;20011;-81
2020/12/11 08:00:06;;;;;;;14.63;9.30;;;;;;;;;;6189168;23;20028;-81
2020/12/11 08:02:33;;;;;;;13.77;8.65;;;;;;;;;;6189342;23;20001;-80
2020/12/11 08:04:59;;;;;;;14.98;8.70;;;;;;;;;;6188527;23;20001;-79
2020/12/11 08:07:26;;;;;;;14.45;8.65;;;;;;;;;;6188969;23;20317;-79
2020/12/11 08:09:52;;;;;;;15.73;9.45;;;;;;;;;;6189281;23;20072;-79
2020/12/11 08:12:19;;;;;;;14.63;9.15;;;;;;;;;;6189531;23;20024;-79
2020/12/11 08:14:45;;;;;;;14.35;8.52;;;;;;;;;;6188599;23;20024;-79
2020/12/11 08:17:12;;;;;;;11.77;7.97;;;;;;;;;;6188409;23;20028;-79
2020/12/11 08:19:39;;;;;;;14.43;8.68;;;;;;;;;;6188599;23;20004;-79
2020/12/11 08:22:15;;;;;;;11.98;7.65;;;;;;;;;;6189398;23;20033;-79
2020/12/11 08:24:41;;;;;;;12.00;7.05;;;;;;;;;;6188690;23;20012;-79
2020/12/11 08:27:07;;;;;;;14.27;8.23;;;;;;;;;;6188242;23;20012;-79
2020/12/11 08:29:33;;;;;;;14.57;8.02;;;;;;;;;;6188964;23;20005;-79
2020/12/11 08:31:59;;;;;;;15.02;8.70;;;;;;;;;;6188182;23;20076;-80
2020/12/11 08:34:29;;;;;;;15.02;8.85;;;;;;;;;;6161098;23;20017;-80
2020/12/11 08:37:03;;;;;;;14.10;9.02;;;;;;;;;;6162202;23;20013;-80
2020/12/11 08:39:29;;;;;;;14.32;8.60;;;;;;;;;;6188434;23;20001;-80
2020/12/11 08:50:12;;;;;;;24.83;12.80;;;;;;;;;;6194518;23;20005;-79
2020/12/11 08:52:38;;;;;;;18.83;11.07;;;;;;;;;;6157901;23;20004;-79
2020/12/11 08:55:04;;;;;;;15.20;9.48;;;;;;;;;;6183750;23;20055;-80
2020/12/11 08:57:32;;;;;;;16.38;8.13;;;;;;;;;;6184208;23;20001;-80
2020/12/11 08:59:58;;;;;;;15.10;8.13;;;;;;;;;;6184093;23;20446;-79
2020/12/11 09:04:42;;;;;;;13.48;8.13;;;;;;;;;;5115554;27;20401;-79
2020/12/11 09:07:11;;;;;;;15.02;8.02;;;;;;;;;;5102386;28;20024;-79
2020/12/11 09:09:37;;;;;;;11.52;6.80;;;;;;;;;;5101322;28;20016;-78
2020/12/11 09:12:03;;;;;;;12.85;7.82;;;;;;;;;;5098981;28;20025;-79
2020/12/11 09:14:29;;;;;;;14.20;8.77;;;;;;;;;;5092324;28;20026;-80
2020/12/11 09:16:55;;;;;;;13.18;7.95;;;;;;;;;;5096629;28;20059;-79
2020/12/11 09:19:21;;;;;;;12.52;8.32;;;;;;;;;;5100233;28;20119;-79
2020/12/11 09:21:47;;;;;;;12.23;8.07;;;;;;;;;;5100249;28;20112;-80
2020/12/11 09:24:13;;;;;;;12.63;7.68;;;;;;;;;;5101853;28;20035;-79
2020/12/11 09:26:39;;;;;;;11.82;7.55;;;;;;;;;;5099938;28;20016;-78
2020/12/11 09:31:38;;;;;;;13.95;8.82;;;;;;;;;;5100215;28;20027;-78
2020/12/11 09:34:04;;;;;;;12.80;7.50;;;;;;;;;;5099025;28;20522;-79
2020/12/11 09:38:48;;;;;;;12.95;8.70;;;;;;;;;;5114612;27;20376;-79
2020/12/11 09:41:17;;;;;;;14.40;9.00;;;;;;;;;;5118607;28;20027;-78
2020/12/11 09:43:59;;;;;;;12.18;8.52;;;;;;;;;;5120639;28;20024;-78
2020/12/11 09:46:43;;;;;;;14.60;8.25;;;;;;;;;;5112515;28;20047;-79
2020/12/11 09:49:17;;;;;;;12.13;7.60;;;;;;;;;;5113964;28;20035;-79
2020/12/11 09:54:24;;;;;;;12.52;7.22;;;;;;;;;;5112276;28;20023;-79
2020/12/11 09:56:51;;;;;;;13.57;7.95;;;;;;;;;;5109192;28;20047;-80
2020/12/11 09:59:27;;;;;;;10.65;6.80;;;;;;;;;;5122525;28;20460;-79
2020/12/11 10:04:24;;;;;;;11.73;7.47;;;;;;;;;;5120162;28;20395;-78
2020/12/11 10:09:09;;;;;;;9.40;6.57;;;;;;;;;;5125407;27;20404;-79
2020/12/11 10:11:35;;;;;;;14.02;7.82;;;;;;;;;;5109542;28;20078;-79
2020/12/11 10:16:36;;;;;;;14.18;7.88;;;;;;;;;;5106461;28;20024;-79
2020/12/11 10:19:02;;;;;;;13.45;7.80;;;;;;;;;;5100093;28;20559;-79
2020/12/11 10:21:29;;;;;;;10.77;6.95;;;;;;;;;;5113430;28;20464;-79
2020/12/11 10:23:55;;;;;;;10.88;6.70;;;;;;;;;;5099214;28;20111;-80
2020/12/11 10:26:21;;;;;;;10.95;7.15;;;;;;;;;;5103509;28;20539;-80
2020/12/11 10:28:47;;;;;;;11.98;6.97;;;;;;;;;;5099678;28;20027;-80
2020/12/11 10:31:13;;;;;;;12.85;7.07;;;;;;;;;;5103126;28;20034;-80
2020/12/11 10:33:39;;;;;;;12.23;7.70;;;;;;;;;;5098932;28;20019;-80
2020/12/11 10:36:05;;;;;;;10.63;6.80;;;;;;;;;;5108924;28;20116;-80
2020/12/11 10:38:31;;;;;;;13.60;7.00;;;;;;;;;;5117753;28;20110;-80
2020/12/11 10:40:57;;;;;;;10.95;7.32;;;;;;;;;;5105902;28;20099;-80
2020/12/11 10:43:23;;;;;;;9.50;6.78;;;;;;;;;;5105652;28;20043;-80
2020/12/11 10:45:49;;;;;;;11.02;7.65;;;;;;;;;;5110695;28;20042;-79
2020/12/11 10:48:15;;;;;;;10.07;5.75;;;;;;;;;;5119444;28;20278;-80
2020/12/11 10:50:41;;;;;;;10.45;7.15;;;;;;;;;;5124039;28;20012;-80
2020/12/11 10:53:07;;;;;;;11.10;6.32;;;;;;;;;;5113197;28;20032;-80
2020/12/11 10:55:33;;;;;;;10.73;7.10;;;;;;;;;;5105999;28;20024;-80
2020/12/11 10:57:59;;;;;;;12.32;6.63;;;;;;;;;;5110456;28;20036;-80
2020/12/11 11:02:44;;;;;;;12.55;7.35;;;;;;;;;;5110923;27;20359;-81
2020/12/11 11:05:10;;;;;;;10.43;6.35;;;;;;;;;;5091288;28;20062;-81
2020/12/11 11:07:36;;;;;;;12.00;7.18;;;;;;;;;;5093005;28;20097;-81
2020/12/11 11:13:05;;;;;;;9.25;6.80;;;;;;;;;;5089944;28;20112;-81
2020/12/11 11:28:24;;;;;;;12.05;6.75;;;;;;;;;;5080078;28;20057;-80
2020/12/11 11:30:50;;;;;;;11.10;6.95;;;;;;;;;;5088034;28;20032;-80
2020/12/11 11:33:16;;;;;;;9.55;6.25;;;;;;;;;;5084654;28;20596;-79
2020/12/11 11:38:01;;;;;;;11.48;6.30;;;;;;;;;;5080748;28;20369;-80
2020/12/11 11:40:27;;;;;;;10.95;6.65;;;;;;;;;;5057778;28;20602;-80
2020/12/11 11:42:53;;;;;;;11.20;6.93;;;;;;;;;;5080918;28;20052;-80
2020/12/11 11:45:24;;;;;;;10.98;6.40;;;;;;;;;;5079744;28;20040;-79
2020/12/11 11:47:53;;;;;;;10.35;7.25;;;;;;;;;;5078015;28;20433;-80
2020/12/11 11:55:14;;;;;;;9.48;6.35;;;;;;;;;;5072837;28;20033;-80
2020/12/11 11:57:41;;;;;;;10.95;7.32;;;;;;;;;;5078922;28;20035;-79
2020/12/11 12:00:08;;;;;;;10.13;6.28;;;;;;;;;;5083091;28;20093;-80
2020/12/11 12:02:34;;;;;;;9.52;6.32;;;;;;;;;;5082419;28;20032;-79
2020/12/11 12:05:01;;;;;;;10.55;6.63;;;;;;;;;;5075233;28;20107;-79
2020/12/11 12:07:28;;;;;;;9.57;6.35;;;;;;;;;;5078249;28;20024;-79
2020/12/11 12:14:31;;;;;;;10.98;6.60;;;;;;;;;;5107911;27;20376;-80
2020/12/11 12:17:01;;;;;;;11.60;7.10;;;;;;;;;;5092393;28;20024;-80
2020/12/11 12:27:35;;;;;;;10.65;6.90;;;;;;;;;;5081084;28;20035;-78
2020/12/11 12:30:01;;;;;;;9.50;5.40;;;;;;;;;;5085369;28;20021;-78
2020/12/11 12:32:30;;;;;;;11.02;7.53;;;;;;;;;;5091258;28;20488;-78
2020/12/11 12:35:02;;;;;;;11.50;7.18;;;;;;;;;;5086747;28;20024;-78
2020/12/11 12:43:15;;;;;;;10.02;6.28;;;;;;;;;;5087173;28;20392;-78
2020/12/11 12:47:59;;;;;;;12.43;6.80;;;;;;;;;;5102154;27;20344;-80
2020/12/11 12:50:25;;;;;;;9.52;6.07;;;;;;;;;;5108205;28;20031;-77
2020/12/11 12:52:51;;;;;;;12.80;7.53;;;;;;;;;;5097632;28;20028;-77
2020/12/11 12:55:20;;;;;;;14.73;9.05;;;;;;;;;;5108124;28;20075;-77
2020/12/11 12:57:49;;;;;;;22.55;13.07;;;;;;;;;;5090189;28;20040;-78
2020/12/11 13:05:16;;;;;;;11.80;7.63;;;;;;;;;;5085826;28;20020;-78
2020/12/11 13:07:42;;;;;;;10.85;6.93;;;;;;;;;;5080463;28;20036;-78
2020/12/11 13:10:08;;;;;;;10.20;6.32;;;;;;;;;;5078744;28;20021;-78
2020/12/11 13:12:34;;;;;;;11.25;6.93;;;;;;;;;;5087701;28;20388;-78
2020/12/11 13:15:01;;;;;;;10.65;6.68;;;;;;;;;;5087027;28;20432;-78
2020/12/11 13:17:27;;;;;;;18.00;11.65;;;;;;;;;;5087591;28;20025;-79
2020/12/11 13:19:53;;;;;;;12.80;9.15;;;;;;;;;;5084168;28;20499;-78
2020/12/11 13:22:40;;;;;;;12.93;8.27;;;;;;;;;;5086783;28;20035;-78
2020/12/11 13:26:14;;;;;;;11.95;7.78;;;;;;;;;;5084290;28;20087;-78
2020/12/11 13:27:52;;;;;;;14.48;7.97;;;;;;;;;;5077733;28;20056;-78
2020/12/11 13:30:19;;;;;;;11.52;7.95;;;;;;;;;;5090518;28;20016;-78
2020/12/11 13:32:45;;;;;;;11.30;7.25;;;;;;;;;;5091737;28;20065;-78
2020/12/11 13:35:11;;;;;;;15.10;6.43;;;;;;;;;;5084743;28;20016;-78
2020/12/11 13:37:37;;;;;;;8.45;5.43;;;;;;;;;;5091791;28;20023;-79
2020/12/11 13:40:04;;;;;;;11.40;7.82;;;;;;;;;;5084235;28;20496;-78
2020/12/11 13:42:29;;;;;;;10.50;7.28;;;;;;;;;;5087865;28;20097;-79
2020/12/11 13:44:56;;;;;;;10.30;7.13;;;;;;;;;;5079290;28;21632;-79
2020/12/11 13:47:22;;;;;;;11.00;7.05;;;;;;;;;;5086094;28;20289;-79
2020/12/11 13:49:47;;;;;;;10.45;6.90;;;;;;;;;;5089891;28;20444;-79
2020/12/11 13:52:13;;;;;;;9.85;7.03;;;;;;;;;;5085514;28;20460;-79
2020/12/11 13:54:39;;;;;;;11.77;7.07;;;;;;;;;;5090481;28;20021;-80
2020/12/11 13:57:05;;;;;;;13.27;7.38;;;;;;;;;;5084363;28;20046;-79
2020/12/11 13:59:31;;;;;;;10.70;6.80;;;;;;;;;;5072666;28;20380;-80
2020/12/11 14:01:58;;;;;;;12.40;7.70;;;;;;;;;;5072833;28;20396;-79
2020/12/11 14:04:24;;;;;;;11.07;7.20;;;;;;;;;;5073854;28;20468;-79
2020/12/11 14:06:50;;;;;;;9.60;6.78;;;;;;;;;;5075187;28;20074;-79
2020/12/11 14:09:17;;;;;;;14.45;8.50;;;;;;;;;;5076764;28;20031;-80
2020/12/11 14:11:43;;;;;;;24.27;13.75;;;;;;;;;;5078801;28;20477;-79
2020/12/11 14:14:09;;;;;;;11.82;7.65;;;;;;;;;;5071960;28;20059;-78
2020/12/11 14:19:21;;;;;;;12.95;8.07;;;;;;;;;;5071734;28;20082;-79
2020/12/11 14:24:33;;;;;;;11.70;7.07;;;;;;;;;;5074108;28;20039;-79
2020/12/11 14:26:59;;;;;;;11.68;7.22;;;;;;;;;;5067789;28;20427;-80
2020/12/11 14:29:25;;;;;;;10.88;6.18;;;;;;;;;;5075362;28;20051;-80
2020/12/11 14:31:52;;;;;;;10.25;7.00;;;;;;;;;;5085478;28;20404;-80
2020/12/11 14:34:19;;;;;;;9.68;6.95;;;;;;;;;;5091805;28;20019;-80
2020/12/11 14:36:45;;;;;;;13.00;7.82;;;;;;;;;;5090581;28;20109;-80
2020/12/11 14:39:11;;;;;;;10.85;6.93;;;;;;;;;;5092332;28;20032;-80
2020/12/11 14:41:40;;;;;;;11.93;6.68;;;;;;;;;;5084449;28;20016;-81
2020/12/11 14:44:07;;;;;;;12.45;7.15;;;;;;;;;;5062238;28;20039;-79
2020/12/11 14:46:33;;;;;;;12.75;7.18;;;;;;;;;;5070205;28;20040;-79
2020/12/11 14:49:00;;;;;;;14.55;9.07;;;;;;;;;;5078308;28;20111;-80
2020/12/11 14:51:30;;;;;;;10.75;7.47;;;;;;;;;;5071904;28;20025;-80
2020/12/11 14:53:56;;;;;;;10.52;6.82;;;;;;;;;;5069319;28;20025;-80
2020/12/11 14:56:23;;;;;;;14.30;10.50;;;;;;;;;;5069041;28;20044;-80
2020/12/11 14:58:48;;;;;;;16.00;8.90;;;;;;;;;;5070683;28;20056;-80
2020/12/11 15:01:14;;;;;;;12.93;8.10;;;;;;;;;;5075939;28;20425;-80
2020/12/11 15:03:40;;;;;;;11.88;7.10;;;;;;;;;;5068396;28;20017;-80
2020/12/11 15:06:10;;;;;;;10.98;6.50;;;;;;;;;;5068920;28;20036;-80
2020/12/11 15:08:36;;;;;;;10.60;7.13;;;;;;;;;;5066800;28;20044;-80
2020/12/11 15:11:02;;;;;;;9.35;6.30;;;;;;;;;;5073409;28;20413;-80
2020/12/11 15:13:28;;;;;;;11.90;6.32;;;;;;;;;;5068961;28;20075;-80
2020/12/11 15:15:54;;;;;;;11.48;7.05;;;;;;;;;;5065788;28;20028;-80
2020/12/11 15:18:20;;;;;;;11.75;6.25;;;;;;;;;;5069451;28;20032;-80
2020/12/11 15:20:47;;;;;;;12.23;7.53;;;;;;;;;;5067655;28;20085;-80
2020/12/11 15:23:13;;;;;;;12.13;7.47;;;;;;;;;;5068868;28;20182;-80
2020/12/11 15:25:39;;;;;;;11.00;7.05;;;;;;;;;;5072631;28;20493;-81
2020/12/11 15:28:05;;;;;;;11.43;8.05;;;;;;;;;;5068859;28;20028;-81
2020/12/11 15:30:32;;;;;;;10.93;7.32;;;;;;;;;;5068486;28;20078;-79
2020/12/11 15:32:58;;;;;;;10.32;6.53;;;;;;;;;;5068452;28;20052;-81
2020/12/11 15:35:24;;;;;;;11.02;7.45;;;;;;;;;;5068525;28;20021;-80
2020/12/11 15:37:50;;;;;;;10.43;6.72;;;;;;;;;;5065075;28;20031;-79
2020/12/11 15:40:16;;;;;;;10.18;6.80;;;;;;;;;;5070915;28;20068;-81
2020/12/11 15:42:42;;;;;;;12.07;6.88;;;;;;;;;;5072611;28;20035;-80
2020/12/11 15:47:26;;;;;;;14.30;8.70;;;;;;;;;;5094621;27;20364;-79
2020/12/11 15:52:10;;;;;;;11.32;6.55;;;;;;;;;;5102518;27;20436;-82
2020/12/11 15:54:36;;;;;;;12.40;7.72;;;;;;;;;;5095436;28;20021;-78
2020/12/11 15:57:02;;;;;;;12.30;7.43;;;;;;;;;;5092813;28;20140;-79
2020/12/11 15:59:28;;;;;;;11.73;7.78;;;;;;;;;;5089110;28;20506;-78
2020/12/11 16:01:54;;;;;;;15.48;9.02;;;;;;;;;;5089387;28;20078;-80
2020/12/11 16:04:20;;;;;;;12.65;8.02;;;;;;;;;;5089114;28;20035;-77
2020/12/11 16:06:46;;;;;;;10.52;6.57;;;;;;;;;;5090942;28;20527;-77
2020/12/11 16:09:12;;;;;;;11.75;7.70;;;;;;;;;;5087725;28;20032;-77
2020/12/11 16:11:37;;;;;;;14.30;9.02;;;;;;;;;;5086129;28;20044;-77
2020/12/11 16:14:03;;;;;;;12.15;8.27;;;;;;;;;;5087616;28;20069;-78
2020/12/11 16:16:29;;;;;;;14.07;9.02;;;;;;;;;;5085826;28;20031;-78
2020/12/11 16:21:14;;;;;;;11.45;7.60;;;;;;;;;;5104265;27;20353;-81
2020/12/11 16:23:41;;;;;;;11.98;7.25;;;;;;;;;;5098156;28;20036;-80
2020/12/11 16:26:07;;;;;;;13.00;7.85;;;;;;;;;;5106171;28;20028;-80
2020/12/11 16:28:33;;;;;;;12.35;8.25;;;;;;;;;;5118665;28;20056;-80
2020/12/11 16:30:59;;;;;;;22.52;11.70;;;;;;;;;;5108167;28;20036;-80
2020/12/11 16:33:25;;;;;;;16.80;9.27;;;;;;;;;;5121974;28;20341;-80
2020/12/11 16:36:00;;;;;;;31.02;14.00;;;;;;;;;;5118235;28;20024;-80
2020/12/11 16:38:26;;;;;;;31.80;17.45;;;;;;;;;;5104739;28;20110;-82
2020/12/11 16:40:52;;;;;;;35.65;19.73;;;;;;;;;;5105263;28;20039;-81
2020/12/11 16:43:31;;;;;;;26.13;13.77;;;;;;;;;;5105912;28;20020;-80
2020/12/11 16:46:02;;;;;;;17.25;10.93;;;;;;;;;;5102916;28;20019;-81
2020/12/11 16:48:30;;;;;;;50.63;22.98;;;;;;;;;;5114684;28;20024;-81
2020/12/11 16:50:56;;;;;;;25.58;13.85;;;;;;;;;;5120333;28;20004;-80
2020/12/11 16:53:22;;;;;;;16.90;10.05;;;;;;;;;;5118958;28;20016;-81
2020/12/11 16:55:49;;;;;;;29.55;13.68;;;;;;;;;;5107311;28;20036;-82
2020/12/11 16:58:15;;;;;;;42.88;21.10;;;;;;;;;;5107400;28;20019;-82
2020/12/11 17:00:41;;;;;;;35.10;17.95;;;;;;;;;;5106725;28;20021;-81
2020/12/11 17:08:34;;;;;;;11.93;8.27;;;;;;;;;;5113696;28;20024;-79
2020/12/11 17:11:00;;;;;;;11.68;7.45;;;;;;;;;;5112545;28;20115;-82
2020/12/11 17:13:26;;;;;;;12.77;8.38;;;;;;;;;;5112516;28;20032;-81
2020/12/11 17:15:51;;;;;;;13.52;9.23;;;;;;;;;;5103126;28;20089;-81
2020/12/11 17:18:18;;;;;;;11.85;8.10;;;;;;;;;;5101860;28;20028;-80
2020/12/11 17:20:45;;;;;;;12.85;8.52;;;;;;;;;;5102839;28;20110;-79
2020/12/11 17:23:12;;;;;;;14.85;10.18;;;;;;;;;;5102237;28;20028;-81
2020/12/11 17:25:38;;;;;;;15.55;9.25;;;;;;;;;;5097899;28;20090;-81
2020/12/11 17:28:04;;;;;;;14.10;8.70;;;;;;;;;;5099066;28;20020;-82
2020/12/11 17:30:52;;;;;;;15.48;10.20;;;;;;;;;;5094316;28;20024;-82
2020/12/11 17:33:23;;;;;;;18.48;12.77;;;;;;;;;;5091672;28;20083;-82
2020/12/11 17:35:49;;;;;;;14.73;9.77;;;;;;;;;;5085580;28;20367;-82
2020/12/11 17:38:15;;;;;;;14.15;9.60;;;;;;;;;;5087932;28;20106;-81
2020/12/11 17:40:42;;;;;;;15.70;8.23;;;;;;;;;;5086347;28;20027;-81
2020/12/11 17:43:08;;;;;;;11.85;8.15;;;;;;;;;;5086421;28;20065;-81
2020/12/11 17:45:34;;;;;;;18.88;9.57;;;;;;;;;;5087088;28;20024;-81
2020/12/11 17:48:00;;;;;;;14.10;8.85;;;;;;;;;;5086402;28;20020;-81
2020/12/11 17:50:26;;;;;;;11.63;7.40;;;;;;;;;;5085378;28;20038;-81
2020/12/11 17:52:52;;;;;;;14.52;9.05;;;;;;;;;;5087808;28;20535;-81
2020/12/11 17:55:18;;;;;;;12.18;7.53;;;;;;;;;;5088284;28;20600;-80
2020/12/11 17:57:48;;;;;;;14.90;8.23;;;;;;;;;;5083752;28;20032;-81
2020/12/11 18:00:14;;;;;;;15.07;7.97;;;;;;;;;;5091992;28;20016;-82
2020/12/11 18:02:45;;;;;;;12.48;7.65;;;;;;;;;;5093382;28;20392;-81
2020/12/11 18:05:12;;;;;;;11.98;7.60;;;;;;;;;;5084433;28;20024;-81
2020/12/11 18:07:40;;;;;;;11.43;7.50;;;;;;;;;;5087008;28;20043;-81
2020/12/11 18:10:06;;;;;;;11.38;7.10;;;;;;;;;;5090199;28;20028;-81
2020/12/11 18:12:33;;;;;;;13.73;9.00;;;;;;;;;;5086307;28;20058;-81
2020/12/11 18:14:59;;;;;;;15.95;9.15;;;;;;;;;;5084868;28;20024;-81
2020/12/11 18:17:25;;;;;;;20.10;12.07;;;;;;;;;;5084538;28;20034;-81
2020/12/11 18:19:51;;;;;;;14.30;9.00;;;;;;;;;;5087367;28;20039;-81
2020/12/11 18:22:18;;;;;;;13.60;9.05;;;;;;;;;;5083442;28;20094;-81
2020/12/11 18:24:45;;;;;;;17.00;9.98;;;;;;;;;;5085542;28;20024;-81
2020/12/11 18:27:11;;;;;;;12.90;9.25;;;;;;;;;;5082992;28;20580;-81
2020/12/11 18:32:03;;;;;;;12.73;8.75;;;;;;;;;;5089259;28;20039;-81
2020/12/11 18:34:29;;;;;;;16.98;10.77;;;;;;;;;;5080670;28;20020;-80
2020/12/11 18:39:14;;;;;;;14.65;8.63;;;;;;;;;;5114428;27;20428;-80
2020/12/11 18:41:40;;;;;;;14.15;9.45;;;;;;;;;;5100207;28;20029;-80
2020/12/11 18:44:06;;;;;;;13.85;9.40;;;;;;;;;;5094474;28;20028;-80
2020/12/11 18:46:32;;;;;;;14.52;9.32;;;;;;;;;;5094432;28;20043;-81
2020/12/11 18:48:58;;;;;;;12.93;8.05;;;;;;;;;;5092815;28;20028;-81
2020/12/11 18:51:23;;;;;;;19.88;11.95;;;;;;;;;;5097698;28;20146;-81
2020/12/11 18:53:49;;;;;;;16.00;11.27;;;;;;;;;;5098908;28;20020;-81
2020/12/11 18:56:28;;;;;;;21.10;12.23;;;;;;;;;;5092353;28;20024;-79
2020/12/11 18:58:55;;;;;;;72.00;45.50;;;;;;;;;;5091712;28;20028;-80
2020/12/11 19:01:21;;;;;;;31.23;19.50;;;;;;;;;;5092930;28;20024;-80
2020/12/11 19:03:47;;;;;;;69.97;52.78;;;;;;;;;;5100072;28;20599;-80
2020/12/11 19:06:13;;;;;;;31.67;22.67;;;;;;;;;;5081010;28;20032;-80
2020/12/11 19:08:40;;;;;;;30.30;21.98;;;;;;;;;;5090473;28;20585;-80
2020/12/11 19:11:07;;;;;;;21.75;14.75;;;;;;;;;;5091604;28;20040;-80
2020/12/11 19:13:34;;;;;;;18.25;13.02;;;;;;;;;;5092221;28;20032;-80
2020/12/11 19:16:00;;;;;;;20.40;13.07;;;;;;;;;;5096570;28;20034;-80
2020/12/11 19:18:26;;;;;;;17.77;11.93;;;;;;;;;;5096641;28;20033;-80
2020/12/11 19:20:52;;;;;;;20.23;13.80;;;;;;;;;;5090228;28;20036;-80
2020/12/11 19:23:18;;;;;;;28.55;19.77;;;;;;;;;;5090520;28;20408;-80
2020/12/11 19:25:45;;;;;;;28.65;20.45;;;;;;;;;;5089240;28;20365;-80
2020/12/11 19:28:12;;;;;;;19.02;13.68;;;;;;;;;;5092989;28;20028;-81
2020/12/11 19:30:38;;;;;;;15.98;11.07;;;;;;;;;;5087799;28;20111;-81
2020/12/11 19:33:04;;;;;;;18.00;11.65;;;;;;;;;;5095892;28;20032;-81
2020/12/11 19:35:30;;;;;;;21.10;14.18;;;;;;;;;;5091405;28;20028;-81
2020/12/11 19:37:56;;;;;;;20.73;13.13;;;;;;;;;;5097091;28;20030;-81
2020/12/11 19:40:22;;;;;;;22.90;14.77;;;;;;;;;;5100249;28;20016;-82
2020/12/11 19:42:48;;;;;;;28.50;18.05;;;;;;;;;;5086815;28;20033;-82
2020/12/11 19:45:14;;;;;;;29.73;19.25;;;;;;;;;;5093458;28;20029;-81
2020/12/11 19:47:40;;;;;;;25.73;17.83;;;;;;;;;;5095377;28;20055;-82
2020/12/11 19:50:08;;;;;;;19.15;12.65;;;;;;;;;;5080957;28;20034;-81
2020/12/11 19:52:36;;;;;;;15.65;11.38;;;;;;;;;;5073270;28;20427;-81
2020/12/11 19:55:03;;;;;;;19.10;12.13;;;;;;;;;;5074661;28;20025;-82
2020/12/11 19:57:29;;;;;;;16.45;9.85;;;;;;;;;;5078542;28;20384;-81
2020/12/11 19:59:55;;;;;;;16.17;10.93;;;;;;;;;;5078203;28;20025;-81
2020/12/11 20:02:21;;;;;;;12.63;9.43;;;;;;;;;;5079220;28;20016;-81
2020/12/11 20:04:47;;;;;;;13.68;9.30;;;;;;;;;;5074624;28;20020;-81
2020/12/11 20:09:31;;;;;;;14.93;9.90;;;;;;;;;;5080909;28;20563;-81
2020/12/11 20:10:09;;;;;;;14.63;9.77;;;;;;;;;;5079615;28;20479;-80
2020/12/11 20:12:35;;;;;;;15.40;9.85;;;;;;;;;;5077488;28;20021;-81
2020/12/11 20:15:01;;;;;;;13.52;9.13;;;;;;;;;;5076554;28;20093;-81
2020/12/11 20:17:27;;;;;;;12.77;8.63;;;;;;;;;;5077128;28;20103;-80
2020/12/11 20:19:53;;;;;;;14.43;9.60;;;;;;;;;;5079613;28;20376;-80
2020/12/11 20:22:19;;;;;;;14.82;9.48;;;;;;;;;;5082306;28;20016;-80
2020/12/11 20:24:45;;;;;;;15.20;9.93;;;;;;;;;;5083794;28;20027;-80
2020/12/11 20:27:14;;;;;;;14.70;9.80;;;;;;;;;;5090843;28;20028;-80
2020/12/11 20:29:40;;;;;;;13.02;9.05;;;;;;;;;;5078993;28;20028;-82
2020/12/11 20:32:06;;;;;;;14.60;9.85;;;;;;;;;;5080413;28;20028;-81
2020/12/11 20:34:38;;;;;;;12.57;8.55;;;;;;;;;;5075931;28;20513;-81
2020/12/11 20:37:04;;;;;;;14.60;9.38;;;;;;;;;;5075860;28;20028;-81
2020/12/11 20:39:30;;;;;;;12.35;8.68;;;;;;;;;;5080018;28;20047;-81
2020/12/11 20:41:57;;;;;;;11.45;8.20;;;;;;;;;;5086204;28;20082;-81
2020/12/11 20:44:24;;;;;;;13.55;9.50;;;;;;;;;;5079132;28;20013;-81
2020/12/11 20:46:50;;;;;;;14.60;8.75;;;;;;;;;;5077128;28;20016;-81
2020/12/11 20:49:16;;;;;;;23.45;14.68;;;;;;;;;;5082550;28;20028;-81
2020/12/11 20:51:42;;;;;;;20.98;12.30;;;;;;;;;;5075931;28;20054;-82
2020/12/11 20:54:08;;;;;;;21.08;11.80;;;;;;;;;;5075922;28;20048;-81
2020/12/11 20:56:34;;;;;;;19.13;11.95;;;;;;;;;;5079831;28;20024;-81
2020/12/11 20:59:03;;;;;;;15.43;10.02;;;;;;;;;;5075437;28;20043;-81
2020/12/11 21:01:29;;;;;;;12.95;9.25;;;;;;;;;;5079383;28;20048;-81
2020/12/11 21:03:55;;;;;;;12.07;7.60;;;;;;;;;;5079852;28;20020;-81
2020/12/11 21:06:22;;;;;;;12.20;8.00;;;;;;;;;;5085997;28;20645;-81
2020/12/11 21:08:52;;;;;;;10.38;7.25;;;;;;;;;;5080968;28;20480;-81
2020/12/11 21:11:18;;;;;;;12.50;7.53;;;;;;;;;;5083210;28;20020;-81
2020/12/11 21:13:44;;;;;;;11.95;7.50;;;;;;;;;;5067400;28;20025;-81
2020/12/11 21:16:11;;;;;;;12.23;7.88;;;;;;;;;;5072378;28;20538;-82
2020/12/11 21:18:37;;;;;;;11.23;6.72;;;;;;;;;;5075932;28;20028;-82
2020/12/11 21:21:03;;;;;;;10.05;7.22;;;;;;;;;;5079904;28;20065;-82
2020/12/11 21:23:29;;;;;;;9.15;5.90;;;;;;;;;;5076350;28;20016;-81
2020/12/11 21:25:55;;;;;;;9.80;6.68;;;;;;;;;;5077234;28;20031;-82
2020/12/11 21:28:21;;;;;;;10.63;6.82;;;;;;;;;;5074398;28;20107;-81
2020/12/11 21:30:49;;;;;;;8.38;5.82;;;;;;;;;;5075817;28;20492;-81
2020/12/11 21:35:09;;;;;;;9.70;5.90;;;;;;;;;;5081609;28;20035;-81
2020/12/11 21:36:04;;;;;;;9.05;6.22;;;;;;;;;;5083258;28;20033;-81
2020/12/11 21:47:41;;;;;;;9.75;6.80;;;;;;;;;;5079010;28;20039;-82
